Time;durP1;ratioP1;P1;durP2;ratioP2;P2;SDS_P1;SDS_P2;PMS_P1;PMS_P2;Temp;Humidity;BMP_temperature;BMP_pressure;BME280_temperature;BME280_humidity;BME280_pressure;Samples;Min_cycle;Max_cycle;Signal;HPM_P1;HPM_P2
2022/12/02 00:03:50;;;;;;;17.92;10.95;;;;;;;0.22;100.00;98276.53;10248320;28;20089;-57
2022/12/02 00:08:49;;;;;;;;;;;;;;;0.17;100.00;98271.97;10249545;28;20078;-57
2022/12/02 00:13:48;;;;;;;8.48;5.10;;;;;;;0.15;100.00;98271.94;10245714;28;19916;-57
2022/12/02 00:18:48;;;;;;;6.82;4.50;;;;;;;0.16;100.00;98285.56;10248209;28;20034;-57
2022/12/02 00:23:47;;;;;;;6.82;3.95;;;;;;;0.11;100.00;98274.25;10248684;28;20077;-57
2022/12/02 00:28:46;;;;;;;;;;;;;;;0.01;100.00;98276.38;10247772;28;20069;-57
2022/12/02 00:33:45;;;;;;;12.18;6.53;;;;;;;-0.02;100.00;98278.78;10247782;28;19952;-56
2022/12/02 00:38:44;;;;;;;10.45;6.68;;;;;;;0.04;100.00;98276.50;10247942;28;20014;-57
2022/12/02 00:49:12;;;;;;;39.90;18.30;;;;;;;0.24;100.00;98268.91;10247615;28;20504;-56
2022/12/02 00:54:12;;;;;;;21.20;11.10;;;;;;;0.28;100.00;98260.59;10245518;28;20563;-56
2022/12/02 00:59:11;;;;;;;12.70;7.57;;;;;;;0.38;100.00;98255.16;10247797;28;20053;-56
2022/12/02 01:04:11;;;;;;;14.45;7.35;;;;;;;0.47;100.00;98241.91;10246934;28;20047;-56
2022/12/02 01:09:10;;;;;;;40.67;19.35;;;;;;;0.51;100.00;98235.28;10247406;28;20081;-56
2022/12/02 01:14:09;;;;;;;15.75;8.43;;;;;;;0.51;100.00;98233.59;10248578;28;20073;-57
2022/12/02 01:19:08;;;;;;;20.27;10.63;;;;;;;0.55;100.00;98234.63;10247335;28;20027;-56
2022/12/02 01:24:07;;;;;;;11.00;7.20;;;;;;;0.51;100.00;98235.28;10247088;28;20447;-56
2022/12/02 01:29:06;;;;;;;19.25;11.35;;;;;;;0.38;100.00;98231.28;10247391;28;20034;-56
2022/12/02 01:34:05;;;;;;;19.23;10.63;;;;;;;0.21;100.00;98222.84;10247485;28;20076;-56
2022/12/02 01:39:04;;;;;;;16.00;9.75;;;;;;;0.09;100.00;98227.38;10244493;28;20019;-56
2022/12/02 01:44:03;;;;;;;12.90;7.78;;;;;;;0.01;100.00;98227.00;10251649;28;20030;-56
2022/12/02 01:49:02;;;;;;;88.75;42.80;;;;;;;-0.03;100.00;98228.53;10253355;28;20066;-56
2022/12/02 01:54:03;;;;;;;20.17;10.48;;;;;;;-0.05;100.00;98227.56;10253673;28;20463;-56
2022/12/02 01:59:02;;;;;;;16.60;9.35;;;;;;;-0.05;100.00;98230.13;10253619;28;20066;-56
2022/12/02 02:04:02;;;;;;;17.75;11.23;;;;;;;-0.09;100.00;98224.81;10253021;28;20089;-56
2022/12/02 02:09:01;;;;;;;31.70;18.45;;;;;;;-0.04;100.00;98236.09;10252684;28;20487;-56
2022/12/02 02:14:03;;;;;;;51.33;27.50;;;;;;;-0.07;100.00;98244.47;10253076;28;20062;-56
2022/12/02 02:19:03;;;;;;;15.55;8.57;;;;;;;-0.01;100.00;98234.59;10252201;28;20068;-56
2022/12/02 02:24:02;;;;;;;11.98;6.85;;;;;;;-0.00;100.00;98230.34;10250749;28;20092;-57
2022/12/02 02:29:01;;;;;;;11.95;7.25;;;;;;;-0.09;100.00;98245.22;10252377;28;20022;-57
2022/12/02 02:34:00;;;;;;;15.70;8.57;;;;;;;-0.21;100.00;98237.84;10252184;28;20070;-57
2022/12/02 02:39:00;;;;;;;18.00;10.52;;;;;;;-0.27;100.00;98240.09;10251525;28;20067;-57
2022/12/02 02:43:59;;;;;;;15.45;8.77;;;;;;;-0.25;100.00;98235.94;10252055;28;20066;-57
2022/12/02 02:48:58;;;;;;;17.83;10.13;;;;;;;-0.20;100.00;98243.03;10251554;28;20058;-56
2022/12/02 02:53:57;;;;;;;21.10;12.45;;;;;;;-0.16;100.00;98244.94;10251560;28;20061;-56
2022/12/02 02:58:56;;;;;;;18.52;10.93;;;;;;;-0.09;100.00;98251.19;10251522;28;20056;-56
2022/12/02 03:04:02;;;;;;;18.98;11.90;;;;;;;-0.06;100.00;98247.94;10247918;28;20042;-58
2022/12/02 03:09:03;;;;;;;20.08;12.60;;;;;;;0.05;100.00;98247.66;10250693;28;20514;-57
2022/12/02 03:14:04;;;;;;;28.42;15.70;;;;;;;0.08;100.00;98246.03;10251157;28;20070;-57
2022/12/02 03:19:04;;;;;;;19.67;11.35;;;;;;;0.03;100.00;98248.34;10250207;28;20058;-57
2022/12/02 03:24:04;;;;;;;31.90;20.80;;;;;;;-0.07;100.00;98262.34;10250392;28;20360;-57
2022/12/02 03:29:04;;;;;;;29.63;20.00;;;;;;;-0.14;100.00;98270.50;10250043;28;20496;-57
2022/12/02 03:34:03;;;;;;;17.38;11.10;;;;;;;-0.02;100.00;98275.31;10250013;28;20460;-55
2022/12/02 03:39:03;;;;;;;;;;;;;;;0.17;100.00;98277.09;10250148;28;20062;-55
2022/12/02 03:44:02;;;;;;;11.40;6.38;;;;;;;0.12;100.00;98253.03;10250187;28;19945;-57
2022/12/02 03:49:01;;;;;;;;;;;;;;;0.35;100.00;98287.31;10247811;28;20058;-55
2022/12/02 03:54:00;;;;;;;158.68;68.38;;;;;;;0.40;100.00;98281.59;10249919;28;19918;-55
2022/12/02 03:58:59;;;;;;;;;;;;;;;0.47;100.00;98288.78;10249486;28;20070;-55
2022/12/02 04:03:58;;;;;;;59.13;27.30;;;;;;;0.48;100.00;98285.41;10248134;28;19937;-55
2022/12/02 04:08:57;;;;;;;24.13;12.82;;;;;;;0.55;100.00;98295.94;10248641;28;20481;-55
2022/12/02 04:13:56;;;;;;;18.85;10.02;;;;;;;0.52;100.00;98295.75;10248419;28;20036;-55
2022/12/02 04:18:55;;;;;;;14.82;7.93;;;;;;;0.53;100.00;98284.75;10248555;28;20034;-55
2022/12/02 04:23:54;;;;;;;14.93;7.93;;;;;;;0.57;100.00;98294.28;10248133;28;20128;-55
2022/12/02 04:28:53;;;;;;;33.92;19.05;;;;;;;0.61;100.00;98302.16;10245858;28;20026;-55
2022/12/02 04:33:52;;;;;;;36.92;20.73;;;;;;;0.40;100.00;98301.16;10248296;28;20164;-54
2022/12/02 04:38:51;;;;;;;26.73;13.75;;;;;;;0.29;100.00;98313.44;10247441;28;20556;-55
2022/12/02 04:43:50;;;;;;;92.57;49.13;;;;;;;0.34;100.00;98317.06;10248513;28;20404;-55
2022/12/02 04:48:49;;;;;;;125.28;60.75;;;;;;;0.33;100.00;98314.44;10248001;28;20018;-55
2022/12/02 04:53:48;;;;;;;69.35;36.80;;;;;;;0.42;100.00;98315.75;10247736;28;20070;-55
2022/12/02 04:58:47;;;;;;;26.83;15.70;;;;;;;0.51;100.00;98312.75;10247035;28;20029;-55
2022/12/02 05:03:45;;;;;;;23.60;13.02;;;;;;;0.59;100.00;98313.13;10242789;28;20447;-55
2022/12/02 05:08:44;;;;;;;15.73;9.23;;;;;;;0.62;100.00;98306.50;10242410;28;20049;-55
2022/12/02 05:13:43;;;;;;;15.07;8.52;;;;;;;0.65;100.00;98303.19;10241160;28;20027;-56
2022/12/02 05:18:42;;;;;;;17.48;9.40;;;;;;;0.67;100.00;98306.72;10249646;28;20033;-56
2022/12/02 05:23:41;;;;;;;21.40;13.32;;;;;;;0.64;100.00;98304.03;10250342;28;20412;-56
2022/12/02 05:28:40;;;;;;;33.67;19.52;;;;;;;0.59;100.00;98292.69;10250666;28;20040;-55
2022/12/02 05:33:39;;;;;;;28.88;18.45;;;;;;;0.55;100.00;98288.25;10252304;28;20042;-56
2022/12/02 05:38:39;;;;;;;40.03;24.23;;;;;;;0.44;100.00;98287.75;10249754;28;20065;-56
2022/12/02 05:43:41;;;;;;;36.05;21.98;;;;;;;0.43;100.00;98294.53;10250953;28;20068;-56
2022/12/02 05:48:42;;;;;;;40.40;25.63;;;;;;;0.42;100.00;98294.47;10226643;28;20526;-56
2022/12/02 05:53:43;;;;;;;37.72;23.75;;;;;;;0.50;100.00;98297.34;10244762;28;20655;-56
2022/12/02 05:58:42;;;;;;;46.97;28.70;;;;;;;0.56;100.00;98298.53;10249584;28;20547;-56
2022/12/02 06:03:41;;;;;;;38.85;22.02;;;;;;;0.52;100.00;98306.84;10249068;28;20472;-55
2022/12/02 06:08:41;;;;;;;27.67;17.05;;;;;;;0.53;100.00;98315.41;10247463;28;20022;-56
2022/12/02 06:13:40;;;;;;;38.88;26.17;;;;;;;0.61;100.00;98321.72;10248861;28;20471;-56
2022/12/02 06:18:39;;;;;;;41.50;26.75;;;;;;;0.56;100.00;98318.97;10249742;28;20432;-56
2022/12/02 06:23:44;;;;;;;34.70;22.33;;;;;;;0.59;100.00;98329.34;10248078;28;20105;-55
2022/12/02 06:28:44;;;;;;;20.85;13.00;;;;;;;0.42;100.00;98320.84;10247141;28;20058;-56
2022/12/02 06:33:46;;;;;;;17.80;11.00;;;;;;;0.39;100.00;98330.94;10245566;28;20129;-55
2022/12/02 06:38:57;;;;;;;25.95;16.10;;;;;;;0.45;100.00;98331.22;10245653;28;20049;-56
2022/12/02 06:49:24;;;;;;;17.02;10.65;;;;;;;0.44;100.00;98337.13;10246963;28;20117;-56
2022/12/02 06:54:28;;;;;;;18.33;11.52;;;;;;;0.51;100.00;98334.88;10212057;28;20058;-55
2022/12/02 06:59:27;;;;;;;26.08;17.58;;;;;;;0.68;100.00;98339.97;10210317;28;20062;-56
2022/12/02 07:04:48;;;;;;;18.08;11.55;;;;;;;0.86;100.00;98342.50;10248085;28;20070;-55
2022/12/02 07:09:57;;;;;;;17.50;10.15;;;;;;;0.93;100.00;98342.81;10249434;28;20145;-56
2022/12/02 07:15:01;;;;;;;16.25;9.75;;;;;;;1.23;100.00;98336.53;10250003;28;20066;-56
2022/12/02 07:20:06;;;;;;;21.38;13.02;;;;;;;1.47;100.00;98346.97;10247932;28;20093;-56
2022/12/02 07:25:31;;;;;;;22.23;14.63;;;;;;;1.67;100.00;98335.06;10250347;28;20057;-56
2022/12/02 07:30:40;;;;;;;23.42;15.48;;;;;;;1.80;100.00;98341.56;10249698;28;20503;-56
2022/12/02 07:35:39;;;;;;;40.30;24.37;;;;;;;2.01;100.00;98336.47;10250140;28;20074;-56
2022/12/02 07:40:38;;;;;;;28.05;16.95;;;;;;;2.25;99.56;98335.75;10246958;28;20038;-56
2022/12/02 07:45:37;;;;;;;34.42;21.58;;;;;;;2.49;99.71;98334.19;10249493;28;20065;-56
2022/12/02 07:50:37;;;;;;;39.53;24.42;;;;;;;2.58;97.89;98329.44;10246308;28;20121;-57
2022/12/02 07:55:36;;;;;;;52.00;32.97;;;;;;;2.53;97.17;98342.88;10247561;28;20700;-57
2022/12/02 08:00:35;;;;;;;25.00;15.68;;;;;;;2.49;96.11;98341.88;10248438;28;20027;-57
2022/12/02 08:05:34;;;;;;;22.70;15.75;;;;;;;2.58;97.52;98331.09;10247502;28;20085;-57
2022/12/02 08:10:33;;;;;;;22.13;16.15;;;;;;;2.64;98.51;98344.16;10247941;28;20030;-57
2022/12/02 08:15:32;;;;;;;13.10;8.82;;;;;;;2.64;97.40;98356.13;10249692;28;20042;-57
2022/12/02 08:20:31;;;;;;;16.67;11.27;;;;;;;2.64;95.83;98348.44;10247992;28;20041;-56
2022/12/02 08:25:30;;;;;;;19.02;12.35;;;;;;;2.63;95.70;98354.34;10249450;28;20068;-56
2022/12/02 08:30:29;;;;;;;28.65;15.38;;;;;;;2.57;94.47;98348.16;10248237;28;20136;-56
2022/12/02 08:35:28;;;;;;;12.25;8.32;;;;;;;2.49;94.15;98351.22;10248679;28;20039;-56
2022/12/02 08:40:27;;;;;;;15.73;10.10;;;;;;;2.49;94.72;98347.00;10248307;28;20026;-56
2022/12/02 08:45:27;;;;;;;13.65;9.95;;;;;;;2.57;94.68;98353.28;10247043;28;20558;-56
2022/12/02 08:50:26;;;;;;;14.68;9.75;;;;;;;2.69;93.88;98347.78;10249008;28;20524;-56
2022/12/02 08:55:26;;;;;;;43.40;25.40;;;;;;;2.75;93.16;98353.16;10258577;28;20073;-56
2022/12/02 09:00:25;;;;;;;;;;;;;;;2.87;93.19;98365.59;10258314;28;20469;-56
2022/12/02 09:05:24;;;;;;;66.30;42.15;;;;;;;3.28;94.26;98353.44;10243660;28;20296;-56
2022/12/02 09:10:23;;;;;;;24.75;16.30;;;;;;;3.40;90.92;98341.09;10217583;28;20054;-58
2022/12/02 09:15:22;;;;;;;89.03;42.22;;;;;;;3.35;90.65;98350.28;10217904;28;20086;-57
2022/12/02 09:20:21;;;;;;;;;;;;;;;3.21;88.02;98346.34;10218363;28;20065;-57
2022/12/02 09:25:19;;;;;;;14.77;9.77;;;;;;;3.04;88.71;98339.72;10219362;28;19945;-57
2022/12/02 09:30:19;;;;;;;14.88;10.40;;;;;;;2.97;87.78;98330.91;10255147;28;20121;-57
2022/12/02 09:35:18;;;;;;;13.75;8.93;;;;;;;2.97;87.83;98336.91;10256322;28;20069;-55
2022/12/02 09:40:17;;;;;;;14.68;10.68;;;;;;;2.98;88.35;98346.38;10256401;28;20037;-55
2022/12/02 09:45:17;;;;;;;22.55;15.13;;;;;;;3.01;86.26;98335.34;10257403;28;20467;-55
2022/12/02 09:50:16;;;;;;;18.80;13.65;;;;;;;3.01;89.21;98337.91;10254867;28;20875;-55
2022/12/02 09:55:17;;;;;;;16.40;11.80;;;;;;;3.17;88.98;98334.25;10255880;28;20535;-55
2022/12/02 10:00:19;;;;;;;12.88;8.63;;;;;;;3.18;88.55;98333.41;10256390;28;20126;-56
2022/12/02 10:05:22;;;;;;;15.48;9.95;;;;;;;3.21;88.65;98337.00;10252274;28;20121;-56
2022/12/02 10:10:25;;;;;;;16.08;11.85;;;;;;;3.35;88.82;98328.91;10251657;28;20065;-56
2022/12/02 10:15:28;;;;;;;15.25;10.95;;;;;;;3.60;88.98;98330.69;10252648;28;20061;-55
2022/12/02 10:20:27;;;;;;;33.20;23.88;;;;;;;3.78;88.75;98331.31;10249397;28;20073;-56
2022/12/02 10:25:30;;;;;;;24.15;17.38;;;;;;;4.03;86.61;98327.03;10226045;28;20049;-56
2022/12/02 10:30:29;;;;;;;22.08;16.15;;;;;;;4.10;85.78;98313.56;10249727;28;20058;-57
2022/12/02 10:35:46;;;;;;;23.00;17.15;;;;;;;4.28;86.24;98313.31;10253076;28;20076;-57
2022/12/02 10:40:45;;;;;;;18.40;13.05;;;;;;;4.26;83.37;98308.09;10251761;28;20072;-57
2022/12/02 10:45:56;;;;;;;18.85;14.45;;;;;;;4.42;84.64;98306.06;10251834;28;20381;-57
2022/12/02 10:50:55;;;;;;;21.30;14.63;;;;;;;4.50;85.20;98302.91;10251984;28;20058;-57
2022/12/02 10:55:56;;;;;;;23.20;17.13;;;;;;;4.46;85.32;98302.75;10249336;28;20058;-57
2022/12/02 11:00:57;;;;;;;29.42;19.98;;;;;;;4.45;86.15;98290.72;10250939;28;20413;-58
2022/12/02 11:05:57;;;;;;;27.52;19.35;;;;;;;4.50;86.64;98295.19;10251411;28;20073;-57
2022/12/02 11:11:15;;;;;;;32.03;22.20;;;;;;;4.57;86.33;98295.38;10251260;28;20453;-56
2022/12/02 11:16:26;;;;;;;35.35;26.23;;;;;;;4.47;85.39;98307.06;10247914;28;20066;-57
2022/12/02 11:21:27;;;;;;;46.95;30.60;;;;;;;4.39;86.42;98303.41;10249998;28;20110;-57
2022/12/02 11:26:58;;;;;;;35.00;25.48;;;;;;;4.25;86.35;98314.09;10249781;28;20555;-58
2022/12/02 11:32:15;;;;;;;29.77;21.33;;;;;;;4.12;85.30;98313.63;10250043;28;20061;-58
2022/12/02 11:42:27;;;;;;;33.45;24.23;;;;;;;3.83;86.21;98311.81;10251196;28;20073;-57
2022/12/02 11:47:32;;;;;;;38.75;26.98;;;;;;;3.98;84.48;98313.16;10250123;28;20080;-58
2022/12/02 11:52:39;;;;;;;32.28;23.10;;;;;;;3.76;84.16;98315.00;10250079;28;20121;-56
2022/12/02 11:57:57;;;;;;;31.10;23.23;;;;;;;3.72;85.78;98309.69;10250228;28;20054;-57
2022/12/02 12:03:09;;;;;;;38.00;26.02;;;;;;;3.79;85.92;98312.53;10249455;28;20074;-57
2022/12/02 12:08:08;;;;;;;35.00;23.77;;;;;;;3.91;85.15;98318.91;10249553;28;20113;-57
2022/12/02 12:13:22;;;;;;;17.55;9.48;;;;;;;3.91;85.67;98318.91;10248298;28;20096;-57
2022/12/02 12:18:45;;;;;;;47.67;27.95;;;;;;;3.67;84.55;98316.38;10220635;28;20456;-56
2022/12/02 12:23:44;;;;;;;45.50;26.77;;;;;;;3.34;85.22;98307.53;10240175;28;20580;-57
2022/12/02 12:28:43;;;;;;;22.27;13.48;;;;;;;3.30;84.67;98325.31;10248751;28;20562;-58
2022/12/02 12:33:42;;;;;;;20.52;12.27;;;;;;;3.09;85.29;98318.56;10248753;28;20030;-57
2022/12/02 12:38:41;;;;;;;18.98;11.88;;;;;;;2.90;86.25;98314.44;10248537;28;20030;-58
2022/12/02 12:43:40;;;;;;;13.77;8.25;;;;;;;2.77;87.85;98335.28;10251068;28;20508;-55
2022/12/02 12:48:39;;;;;;;14.48;8.55;;;;;;;2.59;89.97;98349.13;10249711;28;20046;-55
2022/12/02 12:53:38;;;;;;;17.05;10.88;;;;;;;2.56;90.65;98336.19;10249474;28;20029;-55
2022/12/02 12:58:37;;;;;;;23.65;14.52;;;;;;;2.62;89.54;98342.38;10249902;28;20353;-58
2022/12/02 13:03:36;;;;;;;14.13;8.00;;;;;;;2.74;89.73;98342.84;10247726;28;20049;-58
2022/12/02 13:08:36;;;;;;;17.58;11.23;;;;;;;2.71;90.70;98352.97;10250060;28;20073;-58
2022/12/02 13:13:35;;;;;;;11.43;7.72;;;;;;;2.56;90.50;98338.75;10250119;28;20142;-55
2022/12/02 13:18:34;;;;;;;12.45;6.97;;;;;;;2.64;90.03;98335.63;10249090;28;20403;-55
2022/12/02 13:23:33;;;;;;;16.90;9.88;;;;;;;2.67;90.63;98348.53;10249722;28;20118;-56
2022/12/02 13:28:31;;;;;;;19.25;13.23;;;;;;;2.58;91.57;98349.94;10249190;28;20048;-56
2022/12/02 13:33:31;;;;;;;55.55;24.20;;;;;;;2.50;91.57;98348.75;10250365;28;20035;-56
2022/12/02 13:38:30;;;;;;;;;;;;;;;2.09;93.75;98355.63;10253243;28;20069;-56
2022/12/02 13:43:28;;;;;;;27.95;15.25;;;;;;;2.21;93.48;98350.13;10254249;28;20020;-58
2022/12/02 13:48:27;;;;;;;12.70;7.95;;;;;;;2.21;93.36;98362.03;10256668;28;20053;-56
2022/12/02 13:53:27;;;;;;;19.65;11.15;;;;;;;2.16;93.14;98346.47;10256160;28;20105;-56
2022/12/02 13:58:27;;;;;;;33.25;19.30;;;;;;;2.17;93.71;98359.34;10256492;28;20065;-56
2022/12/02 14:03:25;;;;;;;;;;;;;;;2.02;94.63;98365.50;10256182;28;20135;-57
2022/12/02 14:08:24;;;;;;;16.23;9.05;;;;;;;1.97;95.03;98375.56;10256403;28;20136;-57
2022/12/02 14:13:23;;;;;;;19.38;12.05;;;;;;;1.99;94.62;98373.94;10251567;28;20037;-57
2022/12/02 14:18:22;;;;;;;29.20;17.48;;;;;;;2.03;95.03;98377.53;10254151;28;20138;-58
2022/12/02 14:23:21;;;;;;;19.92;12.23;;;;;;;1.98;95.22;98377.31;10253534;28;20026;-58
2022/12/02 14:28:20;;;;;;;19.13;11.88;;;;;;;2.00;95.71;98396.19;10251055;28;20122;-57
2022/12/02 14:33:19;;;;;;;18.50;12.73;;;;;;;2.02;95.66;98397.13;10253699;28;20027;-57
2022/12/02 14:38:18;;;;;;;24.08;15.57;;;;;;;1.95;96.39;98395.97;10252605;28;20641;-57
2022/12/02 14:43:17;;;;;;;17.70;12.07;;;;;;;1.95;96.06;98401.09;10253293;28;20066;-57
2022/12/02 14:48:16;;;;;;;28.90;18.73;;;;;;;1.89;97.00;98410.19;10251534;28;20042;-57
2022/12/02 14:53:15;;;;;;;21.63;14.82;;;;;;;1.92;96.58;98400.06;10251474;28;20750;-57
2022/12/02 14:58:14;;;;;;;23.48;15.63;;;;;;;2.01;96.41;98415.84;10250504;28;20030;-57
2022/12/02 15:03:13;;;;;;;22.17;14.68;;;;;;;1.95;96.83;98413.91;10251021;28;20129;-57
2022/12/02 15:08:12;;;;;;;23.38;15.68;;;;;;;1.95;96.66;98424.13;10251882;28;20085;-57
2022/12/02 15:13:11;;;;;;;99.25;50.25;;;;;;;1.95;96.75;98428.38;10268236;28;20065;-57
2022/12/02 15:18:10;;;;;;;31.63;21.40;;;;;;;1.89;97.31;98423.00;10250957;28;20097;-57
2022/12/02 15:23:09;;;;;;;25.85;18.63;;;;;;;1.94;97.35;98408.69;10249656;28;20070;-57
2022/12/02 15:28:08;;;;;;;25.33;16.77;;;;;;;2.00;97.25;98426.91;10248685;28;20042;-57
2022/12/02 15:33:07;;;;;;;34.22;24.45;;;;;;;1.98;97.15;98418.28;10221655;28;20032;-58
2022/12/02 15:38:06;;;;;;;28.90;19.30;;;;;;;2.02;97.53;98419.25;10261751;28;20022;-57
2022/12/02 15:43:05;;;;;;;23.65;14.43;;;;;;;1.95;97.02;98431.81;10248676;28;20683;-57
2022/12/02 15:48:04;;;;;;;30.63;19.80;;;;;;;2.00;97.18;98432.03;10231315;28;20070;-57
2022/12/02 15:53:03;;;;;;;30.70;19.77;;;;;;;2.05;97.06;98440.75;10238683;28;20066;-57
2022/12/02 15:58:02;;;;;;;26.25;16.83;;;;;;;2.13;97.04;98438.53;10230145;28;20033;-58
2022/12/02 16:03:01;;;;;;;26.17;16.50;;;;;;;2.02;97.23;98426.94;10229949;28;20046;-56
2022/12/02 16:08:00;;;;;;;43.70;28.88;;;;;;;2.06;97.22;98431.41;10229974;28;20026;-57
2022/12/02 16:12:59;;;;;;;34.85;24.90;;;;;;;2.06;97.45;98437.38;10227577;28;20030;-57
2022/12/02 16:17:58;;;;;;;31.23;21.65;;;;;;;1.98;97.64;98438.75;10229338;28;20319;-58
2022/12/02 16:22:57;;;;;;;24.02;16.90;;;;;;;1.95;97.86;98438.63;10229597;28;20589;-57
2022/12/02 16:27:56;;;;;;;80.22;41.83;;;;;;;2.04;97.91;98444.13;10231963;28;20037;-57
2022/12/02 16:32:55;;;;;;;21.65;14.13;;;;;;;2.13;97.96;98448.78;10227984;28;20035;-57
2022/12/02 16:37:54;;;;;;;15.90;9.57;;;;;;;1.93;97.94;98453.03;10234675;28;20031;-57
2022/12/02 16:42:53;;;;;;;15.40;9.38;;;;;;;1.45;99.78;98450.88;10230548;28;20026;-57
2022/12/02 16:47:52;;;;;;;24.10;14.90;;;;;;;1.47;100.00;98463.75;10222130;28;20038;-56
2022/12/02 16:52:51;;;;;;;20.35;12.23;;;;;;;1.21;100.00;98457.44;10238690;28;20038;-57
2022/12/02 16:57:50;;;;;;;25.48;14.82;;;;;;;1.00;100.00;98460.72;10234703;28;20408;-57
2022/12/02 17:02:49;;;;;;;37.15;21.17;;;;;;;1.11;100.00;98471.47;10228886;28;20045;-56
2022/12/02 17:07:49;;;;;;;35.38;22.65;;;;;;;1.17;100.00;98463.19;10229483;28;20034;-57
2022/12/02 17:12:48;;;;;;;57.17;26.58;;;;;;;1.17;100.00;98471.72;10230547;28;20528;-57
2022/12/02 17:17:47;;;;;;;32.40;20.20;;;;;;;1.21;100.00;98480.44;10239310;28;20157;-56
2022/12/02 17:22:46;;;;;;;28.75;17.42;;;;;;;1.32;100.00;98484.38;10242047;28;20022;-56
2022/12/02 17:27:45;;;;;;;27.52;16.90;;;;;;;1.42;100.00;98485.69;10239386;28;20038;-56
2022/12/02 17:32:44;;;;;;;40.30;20.85;;;;;;;1.37;100.00;98497.38;10234428;28;20031;-57
2022/12/02 17:37:43;;;;;;;27.77;14.38;;;;;;;1.42;100.00;98507.00;10230856;28;20444;-57
2022/12/02 17:42:42;;;;;;;26.65;15.82;;;;;;;1.45;100.00;98501.16;10236911;28;20062;-57
2022/12/02 17:47:41;;;;;;;32.92;19.92;;;;;;;1.55;100.00;98503.31;10237812;28;20032;-56
2022/12/02 17:52:41;;;;;;;35.10;20.58;;;;;;;1.53;100.00;98499.84;10241800;28;20041;-57
2022/12/02 17:57:41;;;;;;;30.63;19.35;;;;;;;1.57;100.00;98504.28;10237017;28;20073;-57
2022/12/02 18:02:40;;;;;;;37.28;23.20;;;;;;;1.58;100.00;98502.63;10231579;28;20078;-58
2022/12/02 18:07:39;;;;;;;18.48;10.60;;;;;;;1.43;100.00;98502.75;10229388;28;20042;-56
2022/12/02 18:12:38;;;;;;;22.73;13.75;;;;;;;1.33;100.00;98499.78;10227094;28;20034;-56
2022/12/02 18:17:37;;;;;;;36.95;20.83;;;;;;;1.46;100.00;98502.94;10218590;28;20042;-56
2022/12/02 18:22:36;;;;;;;31.85;18.00;;;;;;;1.44;100.00;98504.53;10236304;28;20033;-56
2022/12/02 18:27:35;;;;;;;20.10;10.68;;;;;;;1.17;100.00;98502.41;10252880;28;20026;-57
2022/12/02 18:32:34;;;;;;;26.98;15.98;;;;;;;1.21;100.00;98506.88;10251881;28;20708;-57
2022/12/02 18:37:33;;;;;;;23.48;15.65;;;;;;;1.40;100.00;98503.50;10252688;28;20045;-57
2022/12/02 18:42:32;;;;;;;24.83;14.35;;;;;;;1.47;100.00;98515.75;10252373;28;20066;-57
2022/12/02 18:47:31;;;;;;;25.55;12.30;;;;;;;1.50;100.00;98504.81;10251898;28;20077;-57
2022/12/02 18:52:30;;;;;;;30.48;14.20;;;;;;;1.59;100.00;98500.13;10251713;28;20037;-57
2022/12/02 18:57:29;;;;;;;27.48;13.82;;;;;;;1.71;100.00;98505.78;10252001;28;20036;-57
2022/12/02 19:02:28;;;;;;;29.30;13.70;;;;;;;1.62;100.00;98514.72;10250531;28;20086;-57
2022/12/02 19:07:27;;;;;;;28.42;13.57;;;;;;;1.59;100.00;98515.47;10251801;28;20030;-57
2022/12/02 19:12:26;;;;;;;29.60;12.55;;;;;;;1.67;100.00;98514.16;10250841;28;20037;-57
2022/12/02 19:17:25;;;;;;;25.02;13.32;;;;;;;1.71;100.00;98521.13;10245186;28;20128;-57
2022/12/02 19:22:24;;;;;;;25.77;12.18;;;;;;;1.53;100.00;98523.75;10250925;28;20061;-57
2022/12/02 19:27:23;;;;;;;74.10;34.60;;;;;;;1.52;100.00;98523.66;10249465;28;20033;-57
2022/12/02 19:32:22;;;;;;;28.95;14.48;;;;;;;1.60;100.00;98536.78;10249335;28;20602;-57
2022/12/02 19:37:22;;;;;;;39.75;19.98;;;;;;;1.54;100.00;98542.50;10250335;28;20038;-57
2022/12/02 19:42:20;;;;;;;;;;;;;;;1.53;100.00;98548.44;10265144;28;20061;-57
2022/12/02 19:47:19;;;;;;;48.78;24.27;;;;;;;1.48;100.00;98544.78;10243945;28;19910;-57
2022/12/02 19:52:18;;;;;;;51.58;30.58;;;;;;;1.50;100.00;98544.03;10249385;28;20023;-57
2022/12/02 19:57:17;;;;;;;39.90;20.85;;;;;;;1.47;100.00;98545.59;10249574;28;20034;-57
2022/12/02 20:02:16;;;;;;;53.40;27.15;;;;;;;1.55;100.00;98546.81;10248302;28;20054;-57
2022/12/02 20:07:15;;;;;;;44.60;20.80;;;;;;;1.59;100.00;98553.84;10247544;28;20358;-57
2022/12/02 20:12:14;;;;;;;50.70;21.60;;;;;;;1.60;100.00;98558.16;10248708;28;20035;-57
2022/12/02 20:17:13;;;;;;;33.03;17.38;;;;;;;1.61;100.00;98554.78;10248595;28;20511;-57
2022/12/02 20:22:12;;;;;;;42.33;21.15;;;;;;;1.64;100.00;98565.16;10249276;28;20037;-57
2022/12/02 20:27:11;;;;;;;35.78;16.55;;;;;;;1.66;100.00;98562.69;10248530;28;20519;-57
2022/12/02 20:32:10;;;;;;;30.38;14.98;;;;;;;1.67;100.00;98552.53;10247720;28;20042;-57
2022/12/02 20:37:10;;;;;;;35.00;15.88;;;;;;;1.69;100.00;98563.72;10248693;28;20531;-57
2022/12/02 20:42:09;;;;;;;36.85;20.77;;;;;;;1.72;100.00;98558.72;10248189;28;20065;-57
2022/12/02 20:47:08;;;;;;;45.22;23.27;;;;;;;1.48;100.00;98552.44;10249467;28;20104;-57
2022/12/02 20:52:07;;;;;;;40.15;18.90;;;;;;;1.43;100.00;98569.25;10254541;28;20044;-57
2022/12/02 20:57:07;;;;;;;42.63;20.90;;;;;;;1.38;100.00;98561.34;10256697;28;20038;-57
2022/12/02 21:02:06;;;;;;;45.17;20.60;;;;;;;1.42;100.00;98562.41;10255047;28;20505;-57
2022/12/02 21:07:05;;;;;;;36.15;19.08;;;;;;;1.36;100.00;98556.97;10256797;28;20085;-58
2022/12/02 21:12:04;;;;;;;41.65;20.65;;;;;;;1.52;100.00;98560.34;10255278;28;20045;-57
2022/12/02 21:17:03;;;;;;;42.17;20.45;;;;;;;1.59;100.00;98556.38;10255035;28;20070;-57
2022/12/02 21:22:02;;;;;;;38.58;20.65;;;;;;;1.71;100.00;98564.63;10255475;28;20046;-57
2022/12/02 21:27:01;;;;;;;44.65;20.27;;;;;;;1.74;100.00;98567.34;10255145;28;20030;-57
2022/12/02 21:32:00;;;;;;;53.92;24.80;;;;;;;1.79;100.00;98557.34;10253542;28;20113;-57
2022/12/02 21:36:59;;;;;;;55.45;26.35;;;;;;;1.75;100.00;98552.88;10253987;28;20053;-57
2022/12/02 21:41:58;;;;;;;45.30;18.63;;;;;;;1.58;100.00;98551.22;10253560;28;20030;-57
2022/12/02 21:46:56;;;;;;;49.33;21.00;;;;;;;1.46;100.00;98552.38;10253691;28;20033;-57
2022/12/02 21:51:55;;;;;;;52.97;22.70;;;;;;;1.40;100.00;98561.44;10253607;28;20046;-57
2022/12/02 21:56:54;;;;;;;37.22;15.77;;;;;;;1.26;100.00;98551.41;10254731;28;20056;-57
2022/12/02 22:01:53;;;;;;;52.25;25.50;;;;;;;1.22;100.00;98559.72;10253603;28;20073;-57
2022/12/02 22:07:38;;;;;;;46.92;21.67;;;;;;;1.31;100.00;98570.41;10254125;28;20100;-57
2022/12/02 22:12:12;;;;;;;47.25;20.42;;;;;;;1.37;100.00;98568.97;10253117;28;20454;-57
2022/12/02 22:17:12;;;;;;;59.95;25.88;;;;;;;1.30;100.00;98567.81;10250517;28;20146;-57
2022/12/02 22:22:11;;;;;;;47.33;20.85;;;;;;;1.25;100.00;98572.69;10253625;28;20026;-57
2022/12/02 22:27:10;;;;;;;44.05;20.48;;;;;;;1.24;100.00;98568.38;10254286;28;20038;-57
2022/12/02 22:32:08;;;;;;;42.70;21.33;;;;;;;1.27;100.00;98570.19;10254434;28;20038;-57
2022/12/02 22:37:08;;;;;;;46.75;20.45;;;;;;;1.26;100.00;98568.44;10254204;28;20040;-55
2022/12/02 22:42:07;;;;;;;43.20;21.05;;;;;;;1.31;100.00;98555.06;10253738;28;20073;-55
2022/12/02 22:47:06;;;;;;;44.90;20.77;;;;;;;1.42;100.00;98567.50;10253818;28;20046;-57
2022/12/02 22:52:05;;;;;;;44.97;19.67;;;;;;;1.49;100.00;98569.56;10253672;28;20046;-56
2022/12/02 22:57:04;;;;;;;41.67;21.33;;;;;;;1.55;100.00;98569.84;10253680;28;20034;-56
2022/12/02 23:02:02;;;;;;;41.35;20.15;;;;;;;1.56;100.00;98566.50;10250861;28;20053;-56
2022/12/02 23:07:01;;;;;;;37.95;16.70;;;;;;;1.53;100.00;98562.09;10267808;28;20046;-56
2022/12/02 23:12:01;;;;;;;41.03;18.17;;;;;;;1.58;100.00;98566.56;10251086;28;20026;-56
2022/12/02 23:17:00;;;;;;;;;;;;;;;1.68;100.00;98561.94;10250830;28;20536;-56